This is the latest recevied weather packets stored in our database for station/object Dunnningn. If no packets are shown the sender has not sent any weather packets the latest 10 day(s).
| Time | Temp. | Humidity | Pressure | Rain* | Wind** | Luminosity | Snow |
|---|---|---|---|---|---|---|---|
| 1778061734 | 15° C | 69% | 1006.3 hPa | 0.25 mm | - | - | - |
| 1778059931 | 15° C | 70% | 1006.5 hPa | 0.25 mm | - | - | - |
| 1778058131 | 14.44° C | 72% | 1006.5 hPa | 0.25 mm | - | - | - |
| 1778056331 | 14.44° C | 73% | 1006.4 hPa | 0.25 mm | - | - | - |
| 1778054532 | 13.89° C | 77% | 1006.5 hPa | 0.25 mm | - | - | - |
| 1778052731 | 12.22° C | 83% | 1006.5 hPa | 0.25 mm | - | - | - |
| 1778050932 | 11.11° C | 88% | 1006.4 hPa | 0.25 mm | - | - | - |
| 1778049131 | 9.44° C | 92% | 1006.5 hPa | 0.25 mm | - | - | - |
| 1778047331 | 7.22° C | 94% | 1006.7 hPa | 0.25 mm | - | - | - |
| 1778045531 | 6.67° C | 94% | 1006.8 hPa | 0 mm | - | - | - |
| 1778043731 | 6.11° C | 93% | 1006.9 hPa | 0 mm | - | - | - |
| 1778041932 | 6.11° C | 93% | 1007.2 hPa | 0 mm | - | - | - |
| 1778040131 | 6.11° C | 92% | 1007 hPa | 0 mm | - | - | - |
| 1778038331 | 6.67° C | 92% | 1007 hPa | 0 mm | - | - | - |
| 1778036532 | 6.67° C | 92% | 1007.5 hPa | 0 mm | - | - | - |
| 1778034732 | 6.67° C | 92% | 1007.9 hPa | 0 mm | - | - | - |
| 1778032932 | 7.22° C | 92% | 1007.9 hPa | 0 mm | - | - | - |
| 1778031131 | 7.22° C | 92% | 1008 hPa | 0 mm | - | - | - |
| 1778029332 | 7.78° C | 91% | 1008.1 hPa | 0 mm | - | - | - |
| 1778027529 | 8.33° C | 91% | 1008 hPa | 0 mm | - | - | - |
| 1778025729 | 8.33° C | 91% | 1008.5 hPa | 0 mm | - | - | - |
| 1778023929 | 8.89° C | 91% | 1008.8 hPa | 0 mm | - | - | - |
| 1778022129 | 8.89° C | 91% | 1008.7 hPa | 0 mm | - | - | - |
| 1778020330 | 8.89° C | 91% | 1008.9 hPa | 0 mm | - | - | - |
| 1778018529 | 9.44° C | 90% | 1008.8 hPa | 0 mm | - | - | - |
* Rain since midnight (hover to see other rain measurements)
** Current wind speed in m/s (hover to see current wind gust speed)